sensor_id;sensor_type;location;lat;lon;timestamp;P1;durP1;ratioP1;P2;durP2;ratioP2
3085;SDS011;52812;48.960;9.108;2022-08-19T00:00:28;17.63;;;12.70;;
3085;SDS011;52812;48.960;9.108;2022-08-19T00:02:54;16.53;;;12.60;;
3085;SDS011;52812;48.960;9.108;2022-08-19T00:05:20;17.30;;;13.03;;
3085;SDS011;52812;48.960;9.108;2022-08-19T00:07:47;16.90;;;12.87;;
3085;SDS011;52812;48.960;9.108;2022-08-19T00:10:14;16.53;;;13.03;;
3085;SDS011;52812;48.960;9.108;2022-08-19T00:12:40;16.03;;;12.70;;
3085;SDS011;52812;48.960;9.108;2022-08-19T00:15:07;17.40;;;12.40;;
3085;SDS011;52812;48.960;9.108;2022-08-19T00:17:41;21.63;;;13.00;;
3085;SDS011;52812;48.960;9.108;2022-08-19T00:20:09;15.80;;;12.57;;
3085;SDS011;52812;48.960;9.108;2022-08-19T00:22:37;16.23;;;12.03;;
3085;SDS011;52812;48.960;9.108;2022-08-19T00:25:04;18.50;;;12.57;;
3085;SDS011;52812;48.960;9.108;2022-08-19T00:27:30;16.47;;;13.13;;
3085;SDS011;52812;48.960;9.108;2022-08-19T00:29:56;15.63;;;12.53;;
3085;SDS011;52812;48.960;9.108;2022-08-19T00:32:23;17.50;;;12.60;;
3085;SDS011;52812;48.960;9.108;2022-08-19T00:34:50;18.57;;;13.10;;
3085;SDS011;52812;48.960;9.108;2022-08-19T00:37:17;16.83;;;12.60;;
3085;SDS011;52812;48.960;9.108;2022-08-19T00:39:44;18.10;;;12.40;;
3085;SDS011;52812;48.960;9.108;2022-08-19T00:42:10;16.50;;;12.80;;
3085;SDS011;52812;48.960;9.108;2022-08-19T00:44:35;19.50;;;13.23;;
3085;SDS011;52812;48.960;9.108;2022-08-19T00:47:01;17.03;;;12.87;;
3085;SDS011;52812;48.960;9.108;2022-08-19T00:49:31;23.83;;;13.77;;
3085;SDS011;52812;48.960;9.108;2022-08-19T00:52:30;16.80;;;13.47;;
3085;SDS011;52812;48.960;9.108;2022-08-19T00:54:59;17.43;;;13.10;;
3085;SDS011;52812;48.960;9.108;2022-08-19T00:57:31;19.27;;;13.43;;
3085;SDS011;52812;48.960;9.108;2022-08-19T01:00:00;19.57;;;14.00;;
3085;SDS011;52812;48.960;9.108;2022-08-19T01:02:30;18.63;;;13.80;;
3085;SDS011;52812;48.960;9.108;2022-08-19T01:04:57;17.80;;;14.07;;
3085;SDS011;52812;48.960;9.108;2022-08-19T01:07:23;20.30;;;14.07;;
3085;SDS011;52812;48.960;9.108;2022-08-19T01:09:49;16.40;;;13.03;;
3085;SDS011;52812;48.960;9.108;2022-08-19T01:12:15;18.30;;;13.47;;
3085;SDS011;52812;48.960;9.108;2022-08-19T01:14:42;19.40;;;13.63;;
3085;SDS011;52812;48.960;9.108;2022-08-19T01:17:08;17.10;;;12.37;;
3085;SDS011;52812;48.960;9.108;2022-08-19T01:19:37;17.30;;;12.60;;
3085;SDS011;52812;48.960;9.108;2022-08-19T01:22:06;16.03;;;12.53;;
3085;SDS011;52812;48.960;9.108;2022-08-19T01:24:37;16.70;;;12.97;;
3085;SDS011;52812;48.960;9.108;2022-08-19T01:27:05;16.50;;;12.10;;
3085;SDS011;52812;48.960;9.108;2022-08-19T01:29:32;19.33;;;13.83;;
3085;SDS011;52812;48.960;9.108;2022-08-19T01:31:58;17.10;;;12.80;;
3085;SDS011;52812;48.960;9.108;2022-08-19T01:34:25;17.80;;;12.93;;
3085;SDS011;52812;48.960;9.108;2022-08-19T01:36:50;16.20;;;12.50;;
3085;SDS011;52812;48.960;9.108;2022-08-19T01:39:18;17.60;;;13.10;;
3085;SDS011;52812;48.960;9.108;2022-08-19T01:41:45;17.20;;;13.17;;
3085;SDS011;52812;48.960;9.108;2022-08-19T01:44:11;18.47;;;13.73;;
3085;SDS011;52812;48.960;9.108;2022-08-19T01:46:37;17.17;;;12.50;;
3085;SDS011;52812;48.960;9.108;2022-08-19T01:49:04;18.67;;;13.80;;
3085;SDS011;52812;48.960;9.108;2022-08-19T01:51:30;18.50;;;13.97;;
3085;SDS011;52812;48.960;9.108;2022-08-19T01:53:56;18.50;;;13.17;;
3085;SDS011;52812;48.960;9.108;2022-08-19T01:56:22;18.20;;;12.90;;
3085;SDS011;52812;48.960;9.108;2022-08-19T01:58:54;19.27;;;13.27;;
3085;SDS011;52812;48.960;9.108;2022-08-19T02:01:22;19.03;;;13.40;;
3085;SDS011;52812;48.960;9.108;2022-08-19T02:03:48;20.43;;;13.63;;
3085;SDS011;52812;48.960;9.108;2022-08-19T02:06:14;18.13;;;13.53;;
3085;SDS011;52812;48.960;9.108;2022-08-19T02:08:41;19.30;;;13.60;;
3085;SDS011;52812;48.960;9.108;2022-08-19T02:11:17;20.43;;;13.57;;
3085;SDS011;52812;48.960;9.108;2022-08-19T02:13:45;23.10;;;14.10;;
3085;SDS011;52812;48.960;9.108;2022-08-19T02:16:11;22.00;;;15.20;;
3085;SDS011;52812;48.960;9.108;2022-08-19T02:18:36;20.83;;;13.13;;
3085;SDS011;52812;48.960;9.108;2022-08-19T02:21:02;20.10;;;13.77;;
3085;SDS011;52812;48.960;9.108;2022-08-19T02:23:28;20.50;;;13.60;;
3085;SDS011;52812;48.960;9.108;2022-08-19T02:25:53;20.63;;;13.97;;
3085;SDS011;52812;48.960;9.108;2022-08-19T02:28:19;23.40;;;14.50;;
3085;SDS011;52812;48.960;9.108;2022-08-19T02:30:46;21.67;;;14.30;;
3085;SDS011;52812;48.960;9.108;2022-08-19T02:33:12;21.93;;;14.40;;
3085;SDS011;52812;48.960;9.108;2022-08-19T02:35:41;21.63;;;15.10;;
3085;SDS011;52812;48.960;9.108;2022-08-19T02:38:08;24.33;;;15.77;;
3085;SDS011;52812;48.960;9.108;2022-08-19T02:40:53;22.97;;;16.37;;
3085;SDS011;52812;48.960;9.108;2022-08-19T02:43:21;24.93;;;15.80;;
3085;SDS011;52812;48.960;9.108;2022-08-19T02:45:47;22.90;;;15.57;;
3085;SDS011;52812;48.960;9.108;2022-08-19T02:48:15;25.07;;;16.23;;
3085;SDS011;52812;48.960;9.108;2022-08-19T02:50:42;22.57;;;15.13;;
3085;SDS011;52812;48.960;9.108;2022-08-19T02:53:08;22.10;;;15.53;;
3085;SDS011;52812;48.960;9.108;2022-08-19T02:55:34;22.70;;;15.10;;
3085;SDS011;52812;48.960;9.108;2022-08-19T02:58:00;24.20;;;16.60;;
3085;SDS011;52812;48.960;9.108;2022-08-19T03:00:26;23.70;;;16.20;;
3085;SDS011;52812;48.960;9.108;2022-08-19T03:02:52;22.47;;;15.80;;
3085;SDS011;52812;48.960;9.108;2022-08-19T03:05:18;24.07;;;17.03;;
3085;SDS011;52812;48.960;9.108;2022-08-19T03:07:44;26.23;;;17.33;;
3085;SDS011;52812;48.960;9.108;2022-08-19T03:10:11;23.80;;;16.87;;
3085;SDS011;52812;48.960;9.108;2022-08-19T03:12:37;23.00;;;16.77;;
3085;SDS011;52812;48.960;9.108;2022-08-19T03:15:05;24.63;;;17.10;;
3085;SDS011;52812;48.960;9.108;2022-08-19T03:17:32;23.40;;;16.17;;
3085;SDS011;52812;48.960;9.108;2022-08-19T03:19:58;24.10;;;16.43;;
3085;SDS011;52812;48.960;9.108;2022-08-19T03:22:24;25.77;;;16.10;;
3085;SDS011;52812;48.960;9.108;2022-08-19T03:24:50;25.80;;;18.60;;
3085;SDS011;52812;48.960;9.108;2022-08-19T03:27:16;24.10;;;17.63;;
3085;SDS011;52812;48.960;9.108;2022-08-19T03:29:42;24.40;;;16.70;;
3085;SDS011;52812;48.960;9.108;2022-08-19T03:32:08;26.87;;;18.13;;
3085;SDS011;52812;48.960;9.108;2022-08-19T03:34:35;23.60;;;17.73;;
3085;SDS011;52812;48.960;9.108;2022-08-19T03:37:04;26.63;;;18.70;;
3085;SDS011;52812;48.960;9.108;2022-08-19T03:39:32;27.10;;;18.13;;
3085;SDS011;52812;48.960;9.108;2022-08-19T03:41:58;23.67;;;16.80;;
3085;SDS011;52812;48.960;9.108;2022-08-19T03:44:27;26.67;;;19.13;;
3085;SDS011;52812;48.960;9.108;2022-08-19T03:46:55;23.90;;;17.50;;
3085;SDS011;52812;48.960;9.108;2022-08-19T03:49:23;24.93;;;18.43;;
3085;SDS011;52812;48.960;9.108;2022-08-19T03:51:50;26.50;;;17.57;;
3085;SDS011;52812;48.960;9.108;2022-08-19T03:54:17;26.07;;;18.53;;
3085;SDS011;52812;48.960;9.108;2022-08-19T03:56:45;27.83;;;19.23;;
3085;SDS011;52812;48.960;9.108;2022-08-19T03:59:14;28.53;;;18.67;;
3085;SDS011;52812;48.960;9.108;2022-08-19T04:01:42;26.37;;;19.17;;
3085;SDS011;52812;48.960;9.108;2022-08-19T04:04:08;33.43;;;19.37;;
3085;SDS011;52812;48.960;9.108;2022-08-19T04:06:35;35.37;;;20.17;;
3085;SDS011;52812;48.960;9.108;2022-08-19T04:09:03;27.90;;;19.67;;
3085;SDS011;52812;48.960;9.108;2022-08-19T04:11:35;28.07;;;19.67;;
3085;SDS011;52812;48.960;9.108;2022-08-19T04:14:04;26.63;;;19.50;;
3085;SDS011;52812;48.960;9.108;2022-08-19T04:16:30;27.47;;;20.20;;
3085;SDS011;52812;48.960;9.108;2022-08-19T04:18:56;30.57;;;19.57;;
3085;SDS011;52812;48.960;9.108;2022-08-19T04:21:25;27.53;;;19.00;;
3085;SDS011;52812;48.960;9.108;2022-08-19T04:23:52;28.47;;;20.23;;
3085;SDS011;52812;48.960;9.108;2022-08-19T04:26:21;27.10;;;19.33;;
3085;SDS011;52812;48.960;9.108;2022-08-19T04:28:52;25.70;;;19.97;;
3085;SDS011;52812;48.960;9.108;2022-08-19T04:31:20;32.63;;;19.33;;
3085;SDS011;52812;48.960;9.108;2022-08-19T04:33:51;29.40;;;20.20;;
3085;SDS011;52812;48.960;9.108;2022-08-19T04:36:19;29.53;;;20.80;;
3085;SDS011;52812;48.960;9.108;2022-08-19T04:38:47;27.37;;;20.07;;
3085;SDS011;52812;48.960;9.108;2022-08-19T04:41:13;32.07;;;20.57;;
3085;SDS011;52812;48.960;9.108;2022-08-19T04:43:58;26.27;;;18.73;;
3085;SDS011;52812;48.960;9.108;2022-08-19T04:46:24;28.47;;;19.97;;
3085;SDS011;52812;48.960;9.108;2022-08-19T04:48:50;28.40;;;20.17;;
3085;SDS011;52812;48.960;9.108;2022-08-19T04:51:16;30.40;;;20.70;;
3085;SDS011;52812;48.960;9.108;2022-08-19T04:53:42;28.90;;;21.23;;
3085;SDS011;52812;48.960;9.108;2022-08-19T04:56:09;28.70;;;19.67;;
3085;SDS011;52812;48.960;9.108;2022-08-19T04:58:38;28.40;;;20.50;;
3085;SDS011;52812;48.960;9.108;2022-08-19T05:01:05;28.10;;;20.20;;
3085;SDS011;52812;48.960;9.108;2022-08-19T05:03:30;29.87;;;20.53;;
3085;SDS011;52812;48.960;9.108;2022-08-19T05:05:58;28.13;;;19.90;;
3085;SDS011;52812;48.960;9.108;2022-08-19T05:08:32;27.30;;;19.40;;
3085;SDS011;52812;48.960;9.108;2022-08-19T05:10:59;29.90;;;20.20;;
3085;SDS011;52812;48.960;9.108;2022-08-19T05:13:25;29.63;;;20.83;;
3085;SDS011;52812;48.960;9.108;2022-08-19T05:15:55;29.83;;;20.20;;
3085;SDS011;52812;48.960;9.108;2022-08-19T05:18:22;26.73;;;19.40;;
3085;SDS011;52812;48.960;9.108;2022-08-19T05:21:10;26.50;;;19.17;;
3085;SDS011;52812;48.960;9.108;2022-08-19T05:23:57;28.80;;;20.33;;
3085;SDS011;52812;48.960;9.108;2022-08-19T05:26:23;29.47;;;20.03;;
3085;SDS011;52812;48.960;9.108;2022-08-19T05:28:51;26.13;;;19.07;;
3085;SDS011;52812;48.960;9.108;2022-08-19T05:31:17;28.00;;;19.83;;
3085;SDS011;52812;48.960;9.108;2022-08-19T05:33:43;26.97;;;20.17;;
3085;SDS011;52812;48.960;9.108;2022-08-19T05:36:08;25.90;;;19.40;;
3085;SDS011;52812;48.960;9.108;2022-08-19T05:38:34;30.73;;;21.10;;
3085;SDS011;52812;48.960;9.108;2022-08-19T05:41:01;26.60;;;20.00;;
3085;SDS011;52812;48.960;9.108;2022-08-19T05:43:36;29.20;;;21.20;;
3085;SDS011;52812;48.960;9.108;2022-08-19T05:46:03;28.27;;;20.60;;
3085;SDS011;52812;48.960;9.108;2022-08-19T05:48:30;25.03;;;19.20;;
3085;SDS011;52812;48.960;9.108;2022-08-19T05:50:57;28.60;;;20.40;;
3085;SDS011;52812;48.960;9.108;2022-08-19T05:53:24;27.70;;;20.00;;
3085;SDS011;52812;48.960;9.108;2022-08-19T05:55:50;29.67;;;20.60;;
3085;SDS011;52812;48.960;9.108;2022-08-19T05:58:15;27.77;;;20.10;;
3085;SDS011;52812;48.960;9.108;2022-08-19T06:00:42;30.43;;;20.63;;
3085;SDS011;52812;48.960;9.108;2022-08-19T06:03:09;29.90;;;20.40;;
3085;SDS011;52812;48.960;9.108;2022-08-19T06:05:35;29.80;;;20.87;;
3085;SDS011;52812;48.960;9.108;2022-08-19T06:08:00;29.90;;;21.13;;
3085;SDS011;52812;48.960;9.108;2022-08-19T06:10:26;27.50;;;20.43;;
3085;SDS011;52812;48.960;9.108;2022-08-19T06:12:53;26.20;;;20.00;;
3085;SDS011;52812;48.960;9.108;2022-08-19T06:15:21;29.60;;;20.90;;
3085;SDS011;52812;48.960;9.108;2022-08-19T06:17:51;28.40;;;20.57;;
3085;SDS011;52812;48.960;9.108;2022-08-19T06:20:16;24.50;;;18.23;;
3085;SDS011;52812;48.960;9.108;2022-08-19T06:22:44;27.63;;;18.43;;
3085;SDS011;52812;48.960;9.108;2022-08-19T06:25:11;27.37;;;19.53;;
3085;SDS011;52812;48.960;9.108;2022-08-19T06:27:39;28.67;;;19.50;;
3085;SDS011;52812;48.960;9.108;2022-08-19T06:30:05;24.77;;;18.77;;
3085;SDS011;52812;48.960;9.108;2022-08-19T06:32:31;26.03;;;18.93;;
3085;SDS011;52812;48.960;9.108;2022-08-19T06:34:57;26.67;;;19.03;;
3085;SDS011;52812;48.960;9.108;2022-08-19T06:37:23;26.97;;;19.70;;
3085;SDS011;52812;48.960;9.108;2022-08-19T06:39:49;29.43;;;19.20;;
3085;SDS011;52812;48.960;9.108;2022-08-19T06:42:15;26.50;;;18.93;;
3085;SDS011;52812;48.960;9.108;2022-08-19T06:44:43;26.47;;;18.87;;
3085;SDS011;52812;48.960;9.108;2022-08-19T06:47:12;26.97;;;18.07;;
3085;SDS011;52812;48.960;9.108;2022-08-19T06:49:39;26.50;;;18.33;;
3085;SDS011;52812;48.960;9.108;2022-08-19T06:52:05;30.00;;;18.80;;
3085;SDS011;52812;48.960;9.108;2022-08-19T06:54:30;25.83;;;18.33;;
3085;SDS011;52812;48.960;9.108;2022-08-19T06:56:57;26.60;;;19.50;;
3085;SDS011;52812;48.960;9.108;2022-08-19T06:59:25;25.13;;;18.67;;
3085;SDS011;52812;48.960;9.108;2022-08-19T07:01:54;26.80;;;17.83;;
3085;SDS011;52812;48.960;9.108;2022-08-19T07:04:29;26.53;;;18.83;;
3085;SDS011;52812;48.960;9.108;2022-08-19T07:07:00;25.10;;;17.73;;
3085;SDS011;52812;48.960;9.108;2022-08-19T07:09:28;26.30;;;18.43;;
3085;SDS011;52812;48.960;9.108;2022-08-19T07:11:54;25.33;;;18.40;;
3085;SDS011;52812;48.960;9.108;2022-08-19T07:14:22;26.80;;;19.10;;
3085;SDS011;52812;48.960;9.108;2022-08-19T07:16:50;25.00;;;17.50;;
3085;SDS011;52812;48.960;9.108;2022-08-19T07:19:18;22.40;;;17.00;;
3085;SDS011;52812;48.960;9.108;2022-08-19T07:21:46;23.70;;;17.33;;
3085;SDS011;52812;48.960;9.108;2022-08-19T07:24:17;26.77;;;18.93;;
3085;SDS011;52812;48.960;9.108;2022-08-19T07:26:44;22.50;;;16.77;;
3085;SDS011;52812;48.960;9.108;2022-08-19T07:29:11;24.17;;;17.40;;
3085;SDS011;52812;48.960;9.108;2022-08-19T07:31:37;24.80;;;17.67;;
3085;SDS011;52812;48.960;9.108;2022-08-19T07:34:06;22.10;;;15.87;;
3085;SDS011;52812;48.960;9.108;2022-08-19T07:36:34;23.03;;;16.70;;
3085;SDS011;52812;48.960;9.108;2022-08-19T07:39:04;24.83;;;16.80;;
3085;SDS011;52812;48.960;9.108;2022-08-19T07:41:32;23.77;;;16.90;;
3085;SDS011;52812;48.960;9.108;2022-08-19T07:44:00;23.50;;;16.60;;
3085;SDS011;52812;48.960;9.108;2022-08-19T07:46:31;23.57;;;16.73;;
3085;SDS011;52812;48.960;9.108;2022-08-19T07:49:03;21.57;;;15.43;;
3085;SDS011;52812;48.960;9.108;2022-08-19T07:51:29;24.60;;;16.80;;
3085;SDS011;52812;48.960;9.108;2022-08-19T07:53:56;21.30;;;16.10;;
3085;SDS011;52812;48.960;9.108;2022-08-19T07:56:22;21.50;;;15.30;;
3085;SDS011;52812;48.960;9.108;2022-08-19T07:58:48;26.03;;;15.87;;
3085;SDS011;52812;48.960;9.108;2022-08-19T08:01:17;22.57;;;15.90;;
3085;SDS011;52812;48.960;9.108;2022-08-19T08:03:45;22.00;;;16.40;;
3085;SDS011;52812;48.960;9.108;2022-08-19T08:06:30;24.23;;;16.07;;
3085;SDS011;52812;48.960;9.108;2022-08-19T08:09:16;21.03;;;15.17;;
3085;SDS011;52812;48.960;9.108;2022-08-19T08:14:17;25.20;;;16.23;;
3085;SDS011;52812;48.960;9.108;2022-08-19T08:16:45;21.87;;;15.60;;
3085;SDS011;52812;48.960;9.108;2022-08-19T08:19:12;22.83;;;16.80;;
3085;SDS011;52812;48.960;9.108;2022-08-19T08:21:42;21.77;;;15.00;;
3085;SDS011;52812;48.960;9.108;2022-08-19T08:24:08;20.73;;;15.23;;
3085;SDS011;52812;48.960;9.108;2022-08-19T08:26:34;22.63;;;15.90;;
3085;SDS011;52812;48.960;9.108;2022-08-19T08:28:59;21.83;;;15.60;;
3085;SDS011;52812;48.960;9.108;2022-08-19T08:31:25;24.73;;;15.33;;
3085;SDS011;52812;48.960;9.108;2022-08-19T08:33:51;22.03;;;15.13;;
3085;SDS011;52812;48.960;9.108;2022-08-19T08:36:16;19.77;;;13.73;;
3085;SDS011;52812;48.960;9.108;2022-08-19T08:38:43;20.33;;;15.27;;
3085;SDS011;52812;48.960;9.108;2022-08-19T08:43:52;21.13;;;14.60;;
3085;SDS011;52812;48.960;9.108;2022-08-19T08:52:06;18.80;;;14.50;;
3085;SDS011;52812;48.960;9.108;2022-08-19T08:54:43;22.03;;;14.40;;
3085;SDS011;52812;48.960;9.108;2022-08-19T08:57:14;24.03;;;14.63;;
3085;SDS011;52812;48.960;9.108;2022-08-19T08:59:45;20.37;;;13.77;;
3085;SDS011;52812;48.960;9.108;2022-08-19T09:02:17;21.23;;;14.03;;
3085;SDS011;52812;48.960;9.108;2022-08-19T09:04:43;20.40;;;14.57;;
3085;SDS011;52812;48.960;9.108;2022-08-19T09:09:55;18.40;;;13.83;;
3085;SDS011;52812;48.960;9.108;2022-08-19T09:15:18;15.93;;;13.03;;
3085;SDS011;52812;48.960;9.108;2022-08-19T09:17:49;17.77;;;13.13;;
3085;SDS011;52812;48.960;9.108;2022-08-19T09:20:18;18.53;;;13.67;;
3085;SDS011;52812;48.960;9.108;2022-08-19T09:22:46;16.43;;;12.07;;
3085;SDS011;52812;48.960;9.108;2022-08-19T09:25:15;23.53;;;13.70;;
3085;SDS011;52812;48.960;9.108;2022-08-19T09:27:42;17.70;;;13.10;;
3085;SDS011;52812;48.960;9.108;2022-08-19T09:30:19;21.80;;;14.37;;
3085;SDS011;52812;48.960;9.108;2022-08-19T09:32:48;18.23;;;12.93;;
3085;SDS011;52812;48.960;9.108;2022-08-19T09:35:14;19.33;;;12.47;;
3085;SDS011;52812;48.960;9.108;2022-08-19T09:37:40;20.57;;;13.10;;
3085;SDS011;52812;48.960;9.108;2022-08-19T09:40:08;16.87;;;12.87;;
3085;SDS011;52812;48.960;9.108;2022-08-19T09:42:34;16.77;;;13.17;;
3085;SDS011;52812;48.960;9.108;2022-08-19T09:45:00;16.60;;;12.33;;
3085;SDS011;52812;48.960;9.108;2022-08-19T09:47:26;17.17;;;13.27;;
3085;SDS011;52812;48.960;9.108;2022-08-19T09:49:51;18.57;;;12.93;;
3085;SDS011;52812;48.960;9.108;2022-08-19T09:52:17;19.40;;;12.90;;
3085;SDS011;52812;48.960;9.108;2022-08-19T09:54:43;14.47;;;12.40;;
3085;SDS011;52812;48.960;9.108;2022-08-19T09:57:08;16.37;;;12.83;;
3085;SDS011;52812;48.960;9.108;2022-08-19T09:59:34;17.03;;;12.53;;
3085;SDS011;52812;48.960;9.108;2022-08-19T10:01:59;18.23;;;12.30;;
3085;SDS011;52812;48.960;9.108;2022-08-19T10:04:25;17.87;;;12.20;;
3085;SDS011;52812;48.960;9.108;2022-08-19T10:07:14;12.40;;;11.10;;
3085;SDS011;52812;48.960;9.108;2022-08-19T10:09:40;14.63;;;11.50;;
3085;SDS011;52812;48.960;9.108;2022-08-19T10:12:06;12.70;;;11.17;;
3085;SDS011;52812;48.960;9.108;2022-08-19T10:14:33;17.53;;;12.20;;
3085;SDS011;52812;48.960;9.108;2022-08-19T10:16:59;11.33;;;9.63;;
3085;SDS011;52812;48.960;9.108;2022-08-19T10:19:27;14.90;;;11.03;;
3085;SDS011;52812;48.960;9.108;2022-08-19T10:21:55;10.57;;;9.00;;
3085;SDS011;52812;48.960;9.108;2022-08-19T10:24:20;12.73;;;9.37;;
3085;SDS011;52812;48.960;9.108;2022-08-19T10:26:49;12.37;;;9.33;;
3085;SDS011;52812;48.960;9.108;2022-08-19T10:29:14;11.10;;;9.70;;
3085;SDS011;52812;48.960;9.108;2022-08-19T10:31:41;10.30;;;9.00;;
3085;SDS011;52812;48.960;9.108;2022-08-19T10:34:07;9.70;;;8.50;;
3085;SDS011;52812;48.960;9.108;2022-08-19T10:36:35;11.80;;;9.50;;
3085;SDS011;52812;48.960;9.108;2022-08-19T10:39:03;11.20;;;9.47;;
3085;SDS011;52812;48.960;9.108;2022-08-19T10:41:35;10.67;;;9.30;;
3085;SDS011;52812;48.960;9.108;2022-08-19T10:44:09;10.30;;;8.30;;
3085;SDS011;52812;48.960;9.108;2022-08-19T10:46:39;10.13;;;8.97;;
3085;SDS011;52812;48.960;9.108;2022-08-19T10:49:08;17.83;;;9.37;;
3085;SDS011;52812;48.960;9.108;2022-08-19T10:51:36;15.90;;;9.77;;
3085;SDS011;52812;48.960;9.108;2022-08-19T10:54:22;14.80;;;9.60;;
3085;SDS011;52812;48.960;9.108;2022-08-19T10:56:47;12.27;;;9.37;;
3085;SDS011;52812;48.960;9.108;2022-08-19T10:59:21;10.13;;;9.03;;
3085;SDS011;52812;48.960;9.108;2022-08-19T11:01:49;10.30;;;9.20;;
3085;SDS011;52812;48.960;9.108;2022-08-19T11:04:16;10.37;;;8.87;;
3085;SDS011;52812;48.960;9.108;2022-08-19T11:06:43;10.70;;;9.60;;
3085;SDS011;52812;48.960;9.108;2022-08-19T11:09:12;14.50;;;9.90;;
3085;SDS011;52812;48.960;9.108;2022-08-19T11:11:56;12.07;;;9.37;;
3085;SDS011;52812;48.960;9.108;2022-08-19T11:14:22;11.37;;;9.43;;
3085;SDS011;52812;48.960;9.108;2022-08-19T11:16:50;9.57;;;8.50;;
3085;SDS011;52812;48.960;9.108;2022-08-19T11:19:17;10.10;;;9.10;;
3085;SDS011;52812;48.960;9.108;2022-08-19T11:21:45;13.77;;;9.83;;
3085;SDS011;52812;48.960;9.108;2022-08-19T11:24:16;14.00;;;9.90;;
3085;SDS011;52812;48.960;9.108;2022-08-19T11:26:48;12.17;;;9.93;;
3085;SDS011;52812;48.960;9.108;2022-08-19T11:29:15;11.20;;;9.47;;
3085;SDS011;52812;48.960;9.108;2022-08-19T11:31:43;11.73;;;10.37;;
3085;SDS011;52812;48.960;9.108;2022-08-19T11:34:13;12.60;;;9.87;;
3085;SDS011;52812;48.960;9.108;2022-08-19T11:36:44;13.00;;;10.40;;
3085;SDS011;52812;48.960;9.108;2022-08-19T11:39:13;11.10;;;9.73;;
3085;SDS011;52812;48.960;9.108;2022-08-19T11:41:41;12.63;;;10.80;;
3085;SDS011;52812;48.960;9.108;2022-08-19T11:44:07;13.37;;;10.10;;
3085;SDS011;52812;48.960;9.108;2022-08-19T11:46:33;14.57;;;10.83;;
3085;SDS011;52812;48.960;9.108;2022-08-19T11:49:00;11.80;;;10.33;;
3085;SDS011;52812;48.960;9.108;2022-08-19T11:51:28;11.47;;;10.10;;
3085;SDS011;52812;48.960;9.108;2022-08-19T11:53:54;13.00;;;10.50;;
3085;SDS011;52812;48.960;9.108;2022-08-19T11:56:22;15.20;;;10.90;;
3085;SDS011;52812;48.960;9.108;2022-08-19T11:58:50;11.93;;;9.60;;
3085;SDS011;52812;48.960;9.108;2022-08-19T12:01:17;13.47;;;10.47;;
3085;SDS011;52812;48.960;9.108;2022-08-19T12:03:45;14.20;;;10.83;;
3085;SDS011;52812;48.960;9.108;2022-08-19T12:06:13;11.30;;;9.80;;
3085;SDS011;52812;48.960;9.108;2022-08-19T12:08:44;12.07;;;10.13;;
3085;SDS011;52812;48.960;9.108;2022-08-19T12:11:11;10.17;;;9.10;;
3085;SDS011;52812;48.960;9.108;2022-08-19T12:13:38;10.23;;;9.03;;
3085;SDS011;52812;48.960;9.108;2022-08-19T12:16:08;13.60;;;9.03;;
3085;SDS011;52812;48.960;9.108;2022-08-19T12:18:37;9.23;;;8.43;;
3085;SDS011;52812;48.960;9.108;2022-08-19T12:21:03;11.00;;;8.60;;
3085;SDS011;52812;48.960;9.108;2022-08-19T12:23:29;10.37;;;8.00;;
3085;SDS011;52812;48.960;9.108;2022-08-19T12:25:55;9.37;;;8.47;;
3085;SDS011;52812;48.960;9.108;2022-08-19T12:28:22;11.10;;;8.03;;
3085;SDS011;52812;48.960;9.108;2022-08-19T12:30:49;9.50;;;8.47;;
3085;SDS011;52812;48.960;9.108;2022-08-19T12:33:16;11.63;;;8.37;;
3085;SDS011;52812;48.960;9.108;2022-08-19T12:35:48;14.07;;;9.10;;
3085;SDS011;52812;48.960;9.108;2022-08-19T12:38:16;9.27;;;8.00;;
3085;SDS011;52812;48.960;9.108;2022-08-19T12:40:44;9.60;;;8.10;;
3085;SDS011;52812;48.960;9.108;2022-08-19T12:43:14;9.70;;;7.97;;
3085;SDS011;52812;48.960;9.108;2022-08-19T12:45:44;8.80;;;7.30;;
3085;SDS011;52812;48.960;9.108;2022-08-19T12:48:10;8.13;;;7.30;;
3085;SDS011;52812;48.960;9.108;2022-08-19T12:50:39;7.80;;;7.00;;
3085;SDS011;52812;48.960;9.108;2022-08-19T12:53:05;8.97;;;7.57;;
3085;SDS011;52812;48.960;9.108;2022-08-19T12:55:31;8.57;;;6.97;;
3085;SDS011;52812;48.960;9.108;2022-08-19T12:57:56;7.27;;;6.57;;
3085;SDS011;52812;48.960;9.108;2022-08-19T13:00:22;8.00;;;7.20;;
3085;SDS011;52812;48.960;9.108;2022-08-19T13:02:50;7.40;;;6.70;;
3085;SDS011;52812;48.960;9.108;2022-08-19T13:05:21;7.10;;;6.40;;
3085;SDS011;52812;48.960;9.108;2022-08-19T13:07:50;8.60;;;7.10;;
3085;SDS011;52812;48.960;9.108;2022-08-19T13:10:18;7.20;;;6.43;;
3085;SDS011;52812;48.960;9.108;2022-08-19T13:12:45;10.57;;;7.50;;
3085;SDS011;52812;48.960;9.108;2022-08-19T13:15:13;7.90;;;6.80;;
3085;SDS011;52812;48.960;9.108;2022-08-19T13:17:43;8.17;;;7.10;;
3085;SDS011;52812;48.960;9.108;2022-08-19T13:20:08;8.73;;;7.10;;
3085;SDS011;52812;48.960;9.108;2022-08-19T13:22:36;7.40;;;6.50;;
3085;SDS011;52812;48.960;9.108;2022-08-19T13:25:03;7.97;;;6.90;;
3085;SDS011;52812;48.960;9.108;2022-08-19T13:27:30;7.33;;;6.10;;
3085;SDS011;52812;48.960;9.108;2022-08-19T13:29:56;7.90;;;7.10;;
3085;SDS011;52812;48.960;9.108;2022-08-19T13:32:40;7.57;;;6.77;;
3085;SDS011;52812;48.960;9.108;2022-08-19T13:35:24;9.00;;;6.90;;
3085;SDS011;52812;48.960;9.108;2022-08-19T13:37:49;8.80;;;7.17;;
3085;SDS011;52812;48.960;9.108;2022-08-19T13:40:16;7.30;;;6.10;;
3085;SDS011;52812;48.960;9.108;2022-08-19T13:42:46;9.43;;;6.93;;
3085;SDS011;52812;48.960;9.108;2022-08-19T13:45:13;9.23;;;6.83;;
3085;SDS011;52812;48.960;9.108;2022-08-19T13:47:41;7.80;;;6.97;;
3085;SDS011;52812;48.960;9.108;2022-08-19T13:50:09;7.83;;;6.70;;
3085;SDS011;52812;48.960;9.108;2022-08-19T13:52:37;7.27;;;6.57;;
3085;SDS011;52812;48.960;9.108;2022-08-19T13:55:04;7.17;;;6.47;;
3085;SDS011;52812;48.960;9.108;2022-08-19T13:57:30;8.37;;;7.17;;
3085;SDS011;52812;48.960;9.108;2022-08-19T13:59:57;7.10;;;6.40;;
3085;SDS011;52812;48.960;9.108;2022-08-19T14:02:23;7.73;;;6.93;;
3085;SDS011;52812;48.960;9.108;2022-08-19T14:04:48;7.20;;;6.50;;
3085;SDS011;52812;48.960;9.108;2022-08-19T14:07:14;7.83;;;6.87;;
3085;SDS011;52812;48.960;9.108;2022-08-19T14:09:40;10.33;;;6.30;;
3085;SDS011;52812;48.960;9.108;2022-08-19T14:12:06;8.13;;;7.30;;
3085;SDS011;52812;48.960;9.108;2022-08-19T14:14:35;11.33;;;8.07;;
3085;SDS011;52812;48.960;9.108;2022-08-19T14:17:05;9.40;;;8.33;;
3085;SDS011;52812;48.960;9.108;2022-08-19T14:19:32;9.33;;;8.47;;
3085;SDS011;52812;48.960;9.108;2022-08-19T14:21:58;10.20;;;9.20;;
3085;SDS011;52812;48.960;9.108;2022-08-19T14:24:23;9.47;;;8.67;;
3085;SDS011;52812;48.960;9.108;2022-08-19T14:26:49;10.60;;;9.50;;
3085;SDS011;52812;48.960;9.108;2022-08-19T14:29:15;13.30;;;10.23;;
3085;SDS011;52812;48.960;9.108;2022-08-19T14:31:41;11.07;;;9.90;;
3085;SDS011;52812;48.960;9.108;2022-08-19T14:34:08;11.20;;;10.10;;
3085;SDS011;52812;48.960;9.108;2022-08-19T14:36:35;10.47;;;9.47;;
3085;SDS011;52812;48.960;9.108;2022-08-19T14:39:02;12.07;;;10.30;;
3085;SDS011;52812;48.960;9.108;2022-08-19T14:41:28;10.30;;;9.30;;
3085;SDS011;52812;48.960;9.108;2022-08-19T14:43:55;10.50;;;9.50;;
3085;SDS011;52812;48.960;9.108;2022-08-19T14:46:23;10.50;;;9.20;;
3085;SDS011;52812;48.960;9.108;2022-08-19T14:48:50;9.07;;;8.17;;
3085;SDS011;52812;48.960;9.108;2022-08-19T14:51:15;9.73;;;8.83;;
3085;SDS011;52812;48.960;9.108;2022-08-19T14:53:42;9.50;;;8.60;;
3085;SDS011;52812;48.960;9.108;2022-08-19T14:56:09;9.77;;;8.77;;
3085;SDS011;52812;48.960;9.108;2022-08-19T14:58:36;9.40;;;8.50;;
3085;SDS011;52812;48.960;9.108;2022-08-19T15:01:02;9.13;;;8.33;;